Time;durP1;ratioP1;P1;durP2;ratioP2;P2;SDS_P1;SDS_P2;PMS_P1;PMS_P2;Temp;Humidity;BMP_temperature;BMP_pressure;BME280_temperature;BME280_humidity;BME280_pressure;Samples;Min_cycle;Max_cycle;Signal;HPM_P1;HPM_P2
2021/07/04 00:02:04;;;;;;;6.57;4.18;;;;;;;17.35;45.09;95228.22;5045625;28;20176;-71
2021/07/04 00:04:29;;;;;;;5.75;4.20;;;;;;;17.36;44.91;95228.00;5041524;28;20094;-71
2021/07/04 00:06:55;;;;;;;5.18;4.28;;;;;;;17.41;44.89;95213.84;5048969;28;20620;-71
2021/07/04 00:09:20;;;;;;;5.38;4.28;;;;;;;17.50;44.56;95219.69;5057906;28;20372;-71
2021/07/04 00:11:46;;;;;;;7.10;4.50;;;;;;;17.44;44.87;95216.06;5044069;28;20589;-71
2021/07/04 00:14:11;;;;;;;6.50;4.40;;;;;;;17.46;44.29;95213.13;5043155;28;20470;-71
2021/07/04 00:16:37;;;;;;;5.45;4.05;;;;;;;17.42;45.27;95210.09;5061668;28;20077;-70
2021/07/04 00:19:02;;;;;;;8.68;4.07;;;;;;;17.47;44.47;95212.09;5048585;28;20101;-70
2021/07/04 00:21:28;;;;;;;7.45;4.68;;;;;;;17.45;44.44;95206.97;5046652;28;20355;-71
2021/07/04 00:23:53;;;;;;;7.30;5.07;;;;;;;17.37;44.32;95205.41;5045319;28;20440;-71
2021/07/04 00:26:18;;;;;;;8.02;5.50;;;;;;;17.33;44.46;95204.25;5027140;28;20083;-70
2021/07/04 00:28:44;;;;;;;7.38;4.88;;;;;;;17.33;44.75;95206.13;5049961;28;20171;-71
2021/07/04 00:31:10;;;;;;;6.05;4.90;;;;;;;17.34;44.74;95210.44;5042789;28;20102;-71
2021/07/04 00:33:35;;;;;;;6.68;4.47;;;;;;;17.40;44.18;95204.94;5040648;28;20116;-71
2021/07/04 00:36:01;;;;;;;10.07;5.43;;;;;;;17.52;43.97;95206.84;5065768;28;20097;-71
2021/07/04 00:38:26;;;;;;;9.45;6.25;;;;;;;17.54;43.53;95210.09;5044958;28;20077;-71
2021/07/04 00:40:52;;;;;;;9.18;6.18;;;;;;;17.49;44.05;95215.38;5030416;28;20081;-71
2021/07/04 00:43:17;;;;;;;8.95;6.20;;;;;;;17.28;43.83;95204.13;5028555;28;20106;-70
2021/07/04 00:45:43;;;;;;;9.43;5.72;;;;;;;17.22;44.23;95203.19;5042326;28;20120;-71
2021/07/04 00:48:08;;;;;;;8.80;5.78;;;;;;;17.25;44.30;95202.72;5042486;28;20101;-70
2021/07/04 00:50:34;;;;;;;6.93;5.30;;;;;;;17.25;44.80;95197.34;5059003;28;20632;-70
2021/07/04 00:53:00;;;;;;;10.02;5.38;;;;;;;17.26;44.72;95198.97;5054701;28;20077;-70
2021/07/04 00:55:25;;;;;;;7.50;5.15;;;;;;;17.26;44.65;95204.34;5060518;28;20100;-71
2021/07/04 00:57:51;;;;;;;6.10;4.72;;;;;;;17.35;44.49;95196.78;5026236;28;20085;-71
2021/07/04 01:00:18;;;;;;;8.35;5.90;;;;;;;17.30;44.65;95198.50;5011792;28;20116;-71
2021/07/04 01:02:44;;;;;;;10.38;5.45;;;;;;;17.33;44.41;95192.69;5045731;28;20101;-70
2021/07/04 01:05:10;;;;;;;8.10;5.00;;;;;;;17.34;44.84;95200.50;5029083;28;20081;-70
2021/07/04 01:07:35;;;;;;;6.78;4.97;;;;;;;17.36;44.56;95198.41;5044957;28;20407;-71
2021/07/04 01:10:00;;;;;;;8.40;5.40;;;;;;;17.37;44.44;95200.03;5053252;28;20526;-71
2021/07/04 01:12:26;;;;;;;7.38;5.97;;;;;;;17.35;44.37;95196.78;5039622;28;20502;-71
2021/07/04 01:14:51;;;;;;;7.22;5.60;;;;;;;17.34;44.59;95195.09;5047051;28;20104;-70
2021/07/04 01:17:17;;;;;;;6.88;5.22;;;;;;;17.37;44.86;95189.28;5046359;28;20421;-71
2021/07/04 01:19:42;;;;;;;7.63;5.50;;;;;;;17.36;44.57;95184.13;5045650;28;20105;-71
2021/07/04 01:22:08;;;;;;;7.57;5.55;;;;;;;17.39;44.62;95183.66;5042818;28;20086;-71
2021/07/04 01:24:33;;;;;;;8.27;5.28;;;;;;;17.32;44.30;95183.78;5032161;28;20093;-71
2021/07/04 01:26:58;;;;;;;7.38;5.25;;;;;;;17.25;44.54;95178.50;5050011;28;20093;-70
2021/07/04 01:29:24;;;;;;;7.28;5.35;;;;;;;17.28;44.55;95178.03;5033915;28;20076;-71
2021/07/04 01:31:49;;;;;;;8.57;5.65;;;;;;;17.34;44.40;95173.59;5047285;28;20108;-70
2021/07/04 01:34:15;;;;;;;10.85;4.90;;;;;;;17.36;44.84;95178.75;5058220;28;20138;-70
2021/07/04 01:36:40;;;;;;;7.53;5.88;;;;;;;17.32;44.94;95180.25;5059815;28;20142;-71
2021/07/04 01:39:06;;;;;;;8.75;5.22;;;;;;;17.49;44.26;95181.22;5063655;28;20598;-70
2021/07/04 01:41:33;;;;;;;7.60;5.38;;;;;;;17.39;44.58;95176.41;5064688;28;20112;-71
2021/07/04 01:43:59;;;;;;;5.45;4.57;;;;;;;17.43;44.72;95174.06;5047341;28;20566;-70
2021/07/04 01:46:24;;;;;;;7.22;5.00;;;;;;;17.53;45.20;95182.41;5051015;28;20132;-70
2021/07/04 01:48:49;;;;;;;7.70;5.32;;;;;;;17.34;44.84;95175.47;5065643;28;20081;-71
2021/07/04 01:51:15;;;;;;;11.18;5.85;;;;;;;17.03;45.54;95172.81;5064100;28;20101;-71
2021/07/04 01:53:40;;;;;;;6.13;4.50;;;;;;;17.00;46.74;95168.72;5064413;28;20399;-71
2021/07/04 01:56:07;;;;;;;6.45;5.45;;;;;;;16.98;45.92;95170.00;5064111;28;20097;-71
2021/07/04 01:58:34;;;;;;;10.18;5.65;;;;;;;16.98;46.06;95162.75;5063886;28;20101;-71
2021/07/04 02:00:59;;;;;;;6.17;5.07;;;;;;;17.03;46.27;95168.25;5064346;28;20104;-70
2021/07/04 02:03:24;;;;;;;6.30;4.85;;;;;;;17.05;46.09;95168.03;5063673;28;20565;-71
2021/07/04 02:05:50;;;;;;;7.47;4.95;;;;;;;17.04;45.31;95158.31;5064196;28;20347;-71
2021/07/04 02:08:15;;;;;;;7.30;5.43;;;;;;;17.02;46.21;95161.25;5063774;28;20515;-70
2021/07/04 02:10:41;;;;;;;6.43;4.90;;;;;;;17.03;46.30;95162.88;5054886;28;20108;-70
2021/07/04 02:13:07;;;;;;;6.53;5.30;;;;;;;16.99;46.20;95161.69;5063880;28;20116;-70
2021/07/04 02:15:34;;;;;;;7.63;5.18;;;;;;;17.03;46.28;95157.50;5060466;28;20208;-70
2021/07/04 02:18:09;;;;;;;7.65;5.28;;;;;;;17.04;46.01;95163.69;5058920;28;20166;-70
2021/07/04 02:20:35;;;;;;;6.30;4.95;;;;;;;17.05;46.08;95164.50;5063892;28;20573;-70
2021/07/04 02:23:14;;;;;;;6.05;4.63;;;;;;;16.98;47.34;95161.94;5046651;28;20104;-71
2021/07/04 02:25:40;;;;;;;8.38;4.78;;;;;;;16.94;46.73;95152.69;5063953;28;20111;-70
2021/07/04 02:28:06;;;;;;;6.95;4.90;;;;;;;16.93;46.42;95161.81;5046464;28;20218;-70
2021/07/04 02:30:32;;;;;;;5.90;4.72;;;;;;;16.92;46.40;95160.97;5063483;28;20134;-70
2021/07/04 02:33:01;;;;;;;5.95;4.90;;;;;;;16.94;46.42;95158.06;5061692;28;20077;-70
2021/07/04 02:35:26;;;;;;;7.75;5.45;;;;;;;16.93;46.39;95162.59;5040417;28;20098;-71
2021/07/04 02:37:52;;;;;;;7.25;5.18;;;;;;;16.92;46.39;95162.88;5053282;28;20100;-71
2021/07/04 02:40:17;;;;;;;7.75;5.30;;;;;;;16.89;46.61;95161.44;5077404;28;20113;-71
2021/07/04 02:42:43;;;;;;;6.40;5.20;;;;;;;16.87;46.82;95158.97;5063421;28;20112;-70
2021/07/04 02:45:09;;;;;;;5.93;4.78;;;;;;;16.84;47.14;95151.38;5058551;28;20117;-71
2021/07/04 02:47:34;;;;;;;8.10;5.18;;;;;;;16.81;46.79;95159.91;5070762;28;20133;-70
2021/07/04 02:50:00;;;;;;;7.40;5.35;;;;;;;16.82;46.76;95155.34;5055262;28;20080;-71
2021/07/04 02:52:25;;;;;;;7.70;5.20;;;;;;;16.83;46.63;95159.69;5062359;28;20475;-70
2021/07/04 02:54:51;;;;;;;10.35;5.63;;;;;;;16.81;46.34;95157.22;5052581;28;20316;-70
2021/07/04 02:57:16;;;;;;;6.28;5.38;;;;;;;16.81;46.49;95159.91;5049566;28;20602;-71
2021/07/04 02:59:41;;;;;;;7.10;5.25;;;;;;;16.83;46.60;95154.28;5060525;28;20101;-70
2021/07/04 03:02:07;;;;;;;8.15;5.07;;;;;;;16.84;46.25;95156.75;5052277;28;20085;-71
2021/07/04 03:04:32;;;;;;;6.75;4.70;;;;;;;16.85;46.95;95157.56;5046693;28;20124;-70
2021/07/04 03:07:00;;;;;;;7.13;4.68;;;;;;;16.86;47.21;95156.53;5047953;28;20117;-70
2021/07/04 03:09:25;;;;;;;5.68;4.78;;;;;;;16.87;46.96;95158.16;5065742;28;20124;-71
2021/07/04 03:11:51;;;;;;;7.32;4.90;;;;;;;16.84;47.09;95159.44;5057214;28;20101;-70
2021/07/04 03:14:16;;;;;;;7.22;4.80;;;;;;;16.79;47.46;95153.91;5051368;28;20141;-70
2021/07/04 03:16:42;;;;;;;6.65;4.85;;;;;;;16.76;47.36;95155.19;5059787;28;20431;-71
2021/07/04 03:19:08;;;;;;;6.38;4.75;;;;;;;16.75;47.40;95156.25;5050755;28;20536;-70
2021/07/04 03:21:33;;;;;;;5.50;4.70;;;;;;;16.74;46.74;95156.50;5055777;28;20538;-71
2021/07/04 03:23:59;;;;;;;7.45;4.97;;;;;;;16.78;46.35;95154.97;5047846;28;20105;-70
2021/07/04 03:26:24;;;;;;;6.53;5.00;;;;;;;16.74;47.17;95153.78;5059225;28;20081;-70
2021/07/04 03:28:50;;;;;;;6.75;4.57;;;;;;;16.69;47.00;95146.41;5051867;28;20423;-70
2021/07/04 03:31:15;;;;;;;5.72;4.60;;;;;;;16.67;47.19;95155.75;5048193;28;20541;-70
2021/07/04 03:33:41;;;;;;;6.03;4.78;;;;;;;16.64;47.09;95154.34;5059414;28;20081;-71
2021/07/04 03:36:06;;;;;;;6.05;4.72;;;;;;;16.67;47.41;95147.69;5055881;28;20138;-71
2021/07/04 03:38:32;;;;;;;6.63;4.30;;;;;;;16.67;47.27;95148.53;5062245;28;20134;-71
2021/07/04 03:40:57;;;;;;;6.45;4.97;;;;;;;16.66;47.08;95148.75;5061417;28;20081;-71
2021/07/04 03:43:23;;;;;;;9.50;4.72;;;;;;;16.64;47.20;95151.66;5047750;28;20117;-71
2021/07/04 03:45:48;;;;;;;5.80;4.70;;;;;;;16.63;47.56;95150.03;5052178;28;20129;-71
2021/07/04 03:48:13;;;;;;;5.55;4.72;;;;;;;16.64;47.36;95154.34;5048305;28;20110;-70
2021/07/04 03:50:39;;;;;;;7.50;5.13;;;;;;;16.67;47.79;95156.59;5066155;28;20151;-71
2021/07/04 03:53:04;;;;;;;7.25;4.95;;;;;;;16.68;47.88;95144.78;5048279;28;20089;-70
2021/07/04 03:55:30;;;;;;;6.30;4.85;;;;;;;16.73;47.19;95160.22;5051937;28;20458;-71
2021/07/04 03:57:55;;;;;;;6.22;4.85;;;;;;;16.85;47.11;95152.19;5052176;28;20505;-71
2021/07/04 04:00:21;;;;;;;7.53;5.18;;;;;;;16.89;46.63;95153.38;5062953;28;20126;-71
2021/07/04 04:02:47;;;;;;;6.10;4.72;;;;;;;16.83;47.14;95157.00;5061392;28;20112;-70
2021/07/04 04:05:12;;;;;;;6.70;4.68;;;;;;;16.81;47.15;95161.75;5061378;28;20076;-71
2021/07/04 04:07:38;;;;;;;5.78;4.78;;;;;;;16.77;47.23;95154.16;5061475;28;20273;-70
2021/07/04 04:10:07;;;;;;;7.43;4.57;;;;;;;16.80;48.02;95162.81;5061764;28;20085;-70
2021/07/04 04:12:32;;;;;;;7.75;4.93;;;;;;;16.84;47.39;95158.63;5045129;28;20117;-70
2021/07/04 04:15:00;;;;;;;6.88;5.22;;;;;;;16.84;47.39;95162.13;5061673;28;20121;-70
2021/07/04 04:17:26;;;;;;;;;;;;;;;16.83;48.19;95162.38;5055567;28;20084;-71
2021/07/04 04:19:51;;;;;;;7.63;4.18;;;;;;;16.92;47.35;95158.28;5061190;28;19985;-70
2021/07/04 04:22:17;;;;;;;6.45;4.63;;;;;;;17.00;47.16;95160.63;5062797;28;20486;-70
2021/07/04 04:24:42;;;;;;;6.20;4.35;;;;;;;17.03;47.18;95162.03;5061316;28;20106;-70
2021/07/04 04:27:08;;;;;;;6.47;4.50;;;;;;;17.02;47.27;95161.25;5062141;28;20538;-70
2021/07/04 04:29:33;;;;;;;6.75;4.38;;;;;;;17.06;47.16;95160.78;5061544;28;20603;-70
2021/07/04 04:31:59;;;;;;;5.78;4.60;;;;;;;17.10;47.28;95167.34;5061434;28;20548;-70
2021/07/04 04:34:24;;;;;;;5.22;4.40;;;;;;;17.11;47.13;95161.78;5060444;28;20077;-70
2021/07/04 04:36:50;;;;;;;4.88;4.38;;;;;;;17.13;47.21;95166.88;5061657;28;20736;-70
2021/07/04 04:39:15;;;;;;;6.55;4.60;;;;;;;17.14;47.11;95163.97;5058335;28;20465;-70
2021/07/04 04:41:41;;;;;;;8.00;4.47;;;;;;;17.17;46.99;95161.88;5061403;28;20088;-70
2021/07/04 04:44:06;;;;;;;4.95;4.45;;;;;;;17.22;47.05;95164.69;5060884;28;20115;-71
2021/07/04 04:46:32;;;;;;;9.75;4.60;;;;;;;17.23;47.23;95171.72;5060748;28;20129;-71
2021/07/04 04:48:57;;;;;;;5.25;4.53;;;;;;;17.21;47.43;95166.56;5043829;28;20631;-71
2021/07/04 04:51:23;;;;;;;5.38;4.30;;;;;;;17.23;47.94;95166.34;5060482;28;20467;-70
2021/07/04 04:53:49;;;;;;;8.00;4.82;;;;;;;17.21;47.48;95163.88;5060829;28;20154;-71
2021/07/04 04:56:14;;;;;;;6.88;4.55;;;;;;;17.23;47.68;95164.47;5060747;28;20416;-70
2021/07/04 04:58:40;;;;;;;5.72;4.68;;;;;;;17.25;47.06;95170.44;5064137;28;20124;-70
2021/07/04 05:01:05;;;;;;;7.63;4.88;;;;;;;17.31;46.57;95165.19;5066155;28;20081;-71
2021/07/04 05:03:30;;;;;;;5.47;4.53;;;;;;;17.28;46.30;95167.25;5065856;28;20573;-70
2021/07/04 05:05:56;;;;;;;6.50;5.18;;;;;;;17.20;47.35;95164.91;5066152;28;20092;-71
2021/07/04 05:08:21;;;;;;;5.30;4.60;;;;;;;17.27;46.22;95172.91;5065647;28;20128;-71
2021/07/04 05:10:47;;;;;;;5.45;4.70;;;;;;;17.30;46.89;95164.34;5054998;28;20104;-71
2021/07/04 05:13:13;;;;;;;5.65;4.70;;;;;;;17.35;46.82;95169.03;5064541;28;20076;-71
2021/07/04 05:15:38;;;;;;;7.50;4.40;;;;;;;17.41;46.43;95168.13;5059821;28;20510;-70
2021/07/04 05:18:05;;;;;;;6.00;4.75;;;;;;;17.47;46.36;95163.69;5059871;28;20080;-71
2021/07/04 05:20:31;;;;;;;6.90;4.73;;;;;;;17.49;45.98;95159.69;5063991;28;20107;-70
2021/07/04 05:22:56;;;;;;;6.18;4.88;;;;;;;17.53;45.84;95158.19;5063705;28;20270;-71
2021/07/04 05:25:22;;;;;;;5.05;4.50;;;;;;;17.61;45.88;95164.25;5047520;28;20345;-71
2021/07/04 05:27:47;;;;;;;6.82;4.93;;;;;;;17.66;46.44;95161.69;5061169;28;20196;-70
2021/07/04 05:30:14;;;;;;;7.25;5.30;;;;;;;17.31;46.57;95163.31;5039147;28;20096;-71
2021/07/04 05:32:39;;;;;;;6.78;5.10;;;;;;;17.68;46.29;95154.19;5056438;28;20469;-71
2021/07/04 05:35:05;;;;;;;7.30;4.50;;;;;;;17.84;45.93;95160.72;5055395;28;20101;-70
2021/07/04 05:37:31;;;;;;;7.30;5.25;;;;;;;18.00;45.62;95161.09;5065632;28;20073;-71
2021/07/04 05:39:59;;;;;;;5.90;4.63;;;;;;;17.77;45.86;95155.47;5063567;28;20119;-70
2021/07/04 05:42:24;;;;;;;5.85;4.75;;;;;;;17.78;46.22;95151.72;5062922;28;20167;-71
2021/07/04 05:44:51;;;;;;;5.55;4.47;;;;;;;17.89;46.27;95146.59;5064121;28;20128;-71
2021/07/04 05:47:16;;;;;;;5.57;4.43;;;;;;;18.00;46.11;95143.06;5063075;28;20143;-70
2021/07/04 05:49:42;;;;;;;5.72;4.20;;;;;;;18.09;45.60;95140.81;5065899;28;20322;-71
2021/07/04 05:52:07;;;;;;;5.90;4.85;;;;;;;18.21;45.72;95146.16;5063715;28;20108;-71
2021/07/04 05:54:33;;;;;;;4.93;4.43;;;;;;;18.28;45.79;95149.56;5063510;28;20126;-71
2021/07/04 05:56:58;;;;;;;7.38;4.75;;;;;;;18.33;45.95;95145.31;5065179;28;20081;-71
2021/07/04 05:59:23;;;;;;;6.43;4.80;;;;;;;18.40;45.78;95140.59;5064724;28;20116;-70
2021/07/04 06:01:49;;;;;;;5.90;4.80;;;;;;;18.42;45.34;95143.88;5047035;28;20175;-71
2021/07/04 06:04:14;;;;;;;4.95;4.22;;;;;;;18.43;45.54;95145.53;5063201;28;20111;-70
2021/07/04 06:06:40;;;;;;;6.18;4.70;;;;;;;18.46;45.42;95139.63;5062343;28;20553;-71
2021/07/04 06:09:05;;;;;;;5.80;4.93;;;;;;;18.51;44.95;95137.06;5063113;28;20100;-70
2021/07/04 06:11:31;;;;;;;5.32;4.32;;;;;;;18.55;44.86;95132.81;5079579;28;20570;-70
2021/07/04 06:13:56;;;;;;;6.57;4.25;;;;;;;18.63;45.06;95128.13;5061397;28;20166;-70
2021/07/04 06:16:22;;;;;;;7.57;4.72;;;;;;;18.61;44.78;95136.47;5048966;28;20109;-70
2021/07/04 06:18:47;;;;;;;6.40;4.63;;;;;;;18.59;44.27;95129.69;5056913;28;20104;-70
2021/07/04 06:21:13;;;;;;;9.98;5.10;;;;;;;18.65;44.07;95126.00;5064631;28;20495;-71
2021/07/04 06:23:38;;;;;;;5.95;4.80;;;;;;;18.75;45.10;95120.78;5064173;28;20167;-70
2021/07/04 06:26:03;;;;;;;7.72;4.85;;;;;;;18.74;45.03;95121.88;5029654;28;20534;-71
2021/07/04 06:28:29;;;;;;;7.82;5.28;;;;;;;18.72;44.20;95131.22;5056522;28;20117;-70
2021/07/04 06:30:54;;;;;;;6.35;4.93;;;;;;;18.72;45.34;95140.16;5060981;28;20596;-70
2021/07/04 06:33:20;;;;;;;6.47;5.10;;;;;;;18.90;44.26;95135.63;5060126;28;20069;-71
2021/07/04 06:35:45;;;;;;;5.93;5.10;;;;;;;18.89;43.47;95133.97;5046383;28;20654;-70
2021/07/04 06:38:11;;;;;;;6.88;5.10;;;;;;;18.78;44.19;95131.09;5070519;28;20077;-71
2021/07/04 06:40:36;;;;;;;6.22;4.85;;;;;;;18.88;44.95;95135.03;5049949;28;20163;-70
2021/07/04 06:43:02;;;;;;;7.95;5.72;;;;;;;19.01;45.56;95133.91;5061059;28;20115;-70
2021/07/04 06:45:27;;;;;;;6.28;5.38;;;;;;;19.14;45.19;95133.56;5061465;28;20117;-70
2021/07/04 06:47:53;;;;;;;7.22;5.55;;;;;;;19.29;44.86;95135.75;5058877;28;20415;-70
2021/07/04 06:50:19;;;;;;;6.80;5.60;;;;;;;19.36;44.88;95130.16;5058114;28;20130;-70
2021/07/04 06:52:47;;;;;;;6.57;5.55;;;;;;;19.42;44.70;95131.91;5059649;28;20152;-71
2021/07/04 06:55:13;;;;;;;8.20;5.57;;;;;;;19.58;44.27;95130.22;5059216;28;20101;-70
2021/07/04 06:57:38;;;;;;;7.03;5.25;;;;;;;19.72;43.71;95132.59;5059288;28;20133;-70
2021/07/04 07:00:05;;;;;;;7.40;5.65;;;;;;;19.76;43.45;95125.63;5052012;28;20165;-71
2021/07/04 07:02:30;;;;;;;7.20;5.93;;;;;;;19.79;44.01;95124.31;5051262;28;20109;-70
2021/07/04 07:04:56;;;;;;;6.93;5.60;;;;;;;19.85;43.91;95124.13;5047262;28;20084;-71
2021/07/04 07:07:21;;;;;;;6.65;5.20;;;;;;;20.00;44.02;95119.19;5060571;28;20521;-71
2021/07/04 07:09:47;;;;;;;8.73;5.80;;;;;;;20.16;43.28;95117.50;5050096;28;20073;-71
2021/07/04 07:12:13;;;;;;;7.30;5.55;;;;;;;20.24;43.17;95114.34;5041578;28;20108;-70
2021/07/04 07:14:38;;;;;;;7.55;5.30;;;;;;;20.39;42.64;95112.91;5058713;28;20111;-70
2021/07/04 07:17:04;;;;;;;6.15;5.13;;;;;;;20.49;42.84;95105.72;5042161;28;20089;-71
2021/07/04 07:19:29;;;;;;;6.43;5.22;;;;;;;20.61;42.83;95104.75;5054177;28;20127;-70
2021/07/04 07:21:55;;;;;;;5.75;4.85;;;;;;;20.72;42.52;95108.38;5052388;28;20353;-70
2021/07/04 07:24:20;;;;;;;6.50;5.13;;;;;;;20.79;41.80;95108.16;5058034;28;20392;-70
2021/07/04 07:26:46;;;;;;;7.05;5.40;;;;;;;20.87;42.53;95105.00;5060080;28;20201;-70
2021/07/04 07:29:11;;;;;;;7.07;5.25;;;;;;;20.91;41.72;95108.03;5057502;28;20093;-71
2021/07/04 07:31:37;;;;;;;7.30;5.50;;;;;;;20.89;41.12;95108.28;5059096;28;20108;-70
2021/07/04 07:34:03;;;;;;;5.22;4.57;;;;;;;20.99;40.85;95104.84;5041230;28;20471;-71
2021/07/04 07:36:28;;;;;;;8.03;4.60;;;;;;;21.09;41.49;95104.94;5046690;28;20612;-71
2021/07/04 07:38:54;;;;;;;8.63;5.05;;;;;;;21.28;41.02;95104.53;5053436;28;20101;-71
2021/07/04 07:41:19;;;;;;;6.65;5.13;;;;;;;21.46;40.66;95107.94;5050407;28;20097;-70
2021/07/04 07:43:46;;;;;;;9.70;4.95;;;;;;;21.64;40.21;95104.81;5058456;28;20101;-70
2021/07/04 07:46:12;;;;;;;8.55;5.18;;;;;;;21.74;40.35;95105.91;5058175;28;20120;-71
2021/07/04 07:48:38;;;;;;;5.22;4.60;;;;;;;21.89;40.29;95094.38;5057717;28;20115;-70
2021/07/04 07:51:03;;;;;;;6.53;5.25;;;;;;;21.93;38.64;95100.91;5057158;28;20523;-70
2021/07/04 07:53:29;;;;;;;7.13;4.72;;;;;;;21.56;39.01;95101.75;5057691;28;20641;-71
2021/07/04 07:55:54;;;;;;;7.60;5.57;;;;;;;20.54;40.81;95106.84;5058642;28;20449;-71
2021/07/04 07:58:19;;;;;;;9.02;5.18;;;;;;;20.91;40.39;95103.44;5057346;28;20487;-71
2021/07/04 08:00:45;;;;;;;7.35;4.80;;;;;;;20.94;40.00;95097.50;5057771;28;20580;-70
2021/07/04 08:03:14;;;;;;;5.63;4.63;;;;;;;21.31;39.92;95095.91;5056555;28;20104;-70
2021/07/04 08:05:39;;;;;;;4.55;4.00;;;;;;;21.56;39.48;95097.16;5041111;28;20085;-70
2021/07/04 08:08:05;;;;;;;5.82;4.68;;;;;;;21.61;39.22;95088.25;5039305;28;20520;-71
2021/07/04 08:10:31;;;;;;;4.70;4.00;;;;;;;22.12;38.46;95087.72;5058535;28;20172;-70
2021/07/04 08:12:57;;;;;;;5.28;4.05;;;;;;;22.51;35.21;95082.94;5056953;28;20095;-70
2021/07/04 08:15:23;;;;;;;4.93;3.88;;;;;;;22.85;36.26;95093.34;5059054;28;20202;-71
2021/07/04 08:17:48;;;;;;;5.32;3.70;;;;;;;22.50;35.33;95087.53;5059221;28;20081;-70
2021/07/04 08:20:14;;;;;;;4.10;3.50;;;;;;;22.99;35.36;95084.63;5054806;28;20551;-70
2021/07/04 08:22:39;;;;;;;6.20;3.97;;;;;;;22.96;35.61;95077.03;5056881;28;20470;-70
2021/07/04 08:25:06;;;;;;;4.85;3.58;;;;;;;23.45;35.01;95074.88;5059035;28;20091;-71
2021/07/04 08:27:31;;;;;;;4.53;3.67;;;;;;;23.82;34.72;95076.41;5057348;28;20166;-70
2021/07/04 08:29:57;;;;;;;4.28;3.60;;;;;;;23.29;33.92;95064.81;5057328;28;20084;-70
2021/07/04 08:32:22;;;;;;;6.90;3.70;;;;;;;21.29;35.83;95065.59;5057126;28;20101;-70
2021/07/04 08:34:48;;;;;;;4.83;3.37;;;;;;;22.58;34.55;95067.25;5050034;28;20152;-70
2021/07/04 08:37:13;;;;;;;5.20;3.70;;;;;;;22.41;35.96;95057.41;5035049;28;20589;-70
2021/07/04 08:39:39;;;;;;;6.07;3.80;;;;;;;22.07;35.94;95054.34;5049380;28;20125;-70
2021/07/04 08:42:04;;;;;;;4.40;3.40;;;;;;;22.74;34.74;95054.50;5056459;28;20089;-71
2021/07/04 08:44:30;;;;;;;5.00;3.70;;;;;;;22.73;34.03;95057.47;5056430;28;20111;-70
2021/07/04 08:46:57;;;;;;;4.57;3.27;;;;;;;23.69;33.68;95058.75;5017750;28;1133999;-71
2021/07/04 08:49:22;;;;;;;3.30;3.00;;;;;;;24.65;31.34;95057.00;5057641;28;20120;-70
2021/07/04 08:51:48;;;;;;;4.00;3.53;;;;;;;24.62;31.63;95057.56;5058776;28;20120;-70
2021/07/04 08:54:13;;;;;;;3.87;3.27;;;;;;;25.26;31.21;95056.00;5059354;28;20186;-70
2021/07/04 08:56:39;;;;;;;4.07;3.67;;;;;;;25.76;30.39;95046.78;5057122;28;20112;-70
2021/07/04 08:59:04;;;;;;;3.97;3.13;;;;;;;26.33;30.89;95037.91;5058804;28;20709;-70
2021/07/04 09:01:30;;;;;;;5.10;3.10;;;;;;;26.62;29.62;95039.72;5058105;28;20073;-71
2021/07/04 09:04:12;;;;;;;4.67;3.57;;;;;;;26.88;28.05;95037.38;5038400;28;20101;-70
2021/07/04 09:06:45;;;;;;;4.88;3.40;;;;;;;27.30;28.37;95024.97;5044870;28;20158;-71
2021/07/04 09:09:19;;;;;;;3.63;3.20;;;;;;;27.55;28.58;95028.31;5056204;28;20385;-70
2021/07/04 09:11:51;;;;;;;5.07;3.20;;;;;;;27.91;27.78;95027.66;5059222;28;20138;-70
2021/07/04 09:14:16;;;;;;;4.20;3.53;;;;;;;28.15;26.95;95024.69;5043520;28;20077;-70
2021/07/04 09:16:48;;;;;;;3.70;3.10;;;;;;;28.24;26.17;95024.00;5040123;28;20104;-71
2021/07/04 09:19:15;;;;;;;5.25;3.40;;;;;;;25.87;28.72;95029.22;5046275;28;20338;-70
2021/07/04 09:21:41;;;;;;;6.05;3.42;;;;;;;26.65;27.68;95019.19;5061973;28;20104;-71
2021/07/04 09:24:27;;;;;;;3.40;3.10;;;;;;;27.62;26.23;95026.00;5049204;28;20115;-70
2021/07/04 09:26:53;;;;;;;3.50;3.10;;;;;;;27.36;26.66;95010.09;5043737;28;20555;-71
2021/07/04 09:29:42;;;;;;;3.73;3.30;;;;;;;27.21;26.67;95011.19;5052082;28;20089;-70
2021/07/04 09:32:11;;;;;;;3.92;3.30;;;;;;;25.79;28.54;95008.03;5043947;28;20348;-70
2021/07/04 09:34:37;;;;;;;3.40;3.10;;;;;;;26.60;27.31;95003.69;5041566;28;20135;-71
2021/07/04 09:37:03;;;;;;;5.67;3.33;;;;;;;26.59;27.39;94997.44;5060805;28;20116;-71
2021/07/04 09:39:28;;;;;;;3.50;3.20;;;;;;;26.73;26.09;95002.13;5064955;28;20093;-70
2021/07/04 09:42:04;;;;;;;5.07;3.40;;;;;;;26.43;26.81;94991.38;5039100;28;20077;-71
2021/07/04 09:44:30;;;;;;;4.20;3.50;;;;;;;26.71;25.16;94982.50;5043654;28;20140;-71
2021/07/04 09:47:19;;;;;;;3.47;3.17;;;;;;;26.61;26.66;94986.22;5047914;28;20700;-70
2021/07/04 09:49:46;;;;;;;4.38;3.60;;;;;;;25.84;27.40;94991.63;5050884;28;20523;-71
2021/07/04 09:52:21;;;;;;;3.85;3.40;;;;;;;25.53;28.52;94983.81;5059477;28;20466;-70
2021/07/04 09:54:56;;;;;;;6.57;3.30;;;;;;;25.12;30.19;94974.97;5048005;28;20798;-71
2021/07/04 09:57:22;;;;;;;5.38;3.50;;;;;;;24.52;30.41;94973.28;5042447;28;20078;-71
2021/07/04 09:59:47;;;;;;;5.60;3.47;;;;;;;26.02;28.64;94979.16;5053229;28;20105;-70
2021/07/04 10:02:18;;;;;;;4.47;3.30;;;;;;;25.53;29.46;94967.47;5060710;28;20081;-71
2021/07/04 10:04:43;;;;;;;4.07;3.33;;;;;;;26.32;28.62;94968.09;5059520;28;20109;-70
2021/07/04 10:07:09;;;;;;;5.13;3.67;;;;;;;26.38;27.99;94966.91;5041993;28;20096;-70
2021/07/04 10:09:34;;;;;;;4.03;3.33;;;;;;;25.76;26.77;94962.31;5058679;28;20097;-71
2021/07/04 10:12:00;;;;;;;4.60;3.10;;;;;;;26.26;28.06;94959.16;5025359;28;20100;-71
2021/07/04 10:14:26;;;;;;;4.15;3.10;;;;;;;27.05;26.86;94962.28;5059424;28;20107;-70
2021/07/04 10:16:51;;;;;;;4.13;3.00;;;;;;;27.41;25.05;94955.34;5059471;28;20444;-71
2021/07/04 10:19:19;;;;;;;3.97;3.20;;;;;;;27.98;24.94;94950.66;5059100;28;20196;-70
2021/07/04 10:21:44;;;;;;;3.00;2.70;;;;;;;28.34;23.53;94946.34;5060424;28;20214;-70
2021/07/04 10:24:10;;;;;;;5.90;3.93;;;;;;;25.71;26.57;94947.63;5060057;28;20109;-70
2021/07/04 10:26:36;;;;;;;4.00;3.05;;;;;;;27.23;24.73;94935.22;5059921;28;20084;-70
2021/07/04 10:29:04;;;;;;;3.35;3.03;;;;;;;26.99;26.06;94938.91;5059832;28;20096;-70
2021/07/04 10:31:31;;;;;;;5.50;3.17;;;;;;;26.95;26.20;94935.97;5043424;28;20117;-71
2021/07/04 10:34:10;;;;;;;3.47;2.95;;;;;;;27.78;25.89;94926.19;5057177;28;20073;-71
2021/07/04 10:36:58;;;;;;;3.22;2.83;;;;;;;28.36;25.38;94935.88;5047793;28;20105;-70
2021/07/04 10:39:28;;;;;;;3.53;2.90;;;;;;;28.32;24.58;94932.97;5059407;28;20097;-70
2021/07/04 10:42:01;;;;;;;3.33;3.00;;;;;;;28.48;24.93;94943.53;5060320;28;20591;-70
2021/07/04 10:44:43;;;;;;;3.97;2.95;;;;;;;28.52;22.94;94934.38;5059921;28;20183;-70
2021/07/04 10:47:13;;;;;;;3.97;3.05;;;;;;;28.63;23.91;94931.38;5061109;28;20636;-70
2021/07/04 10:49:43;;;;;;;3.08;2.78;;;;;;;28.69;22.76;94924.72;5060076;28;20120;-71
2021/07/04 10:52:12;;;;;;;2.97;2.67;;;;;;;28.70;23.12;94923.56;5042481;28;20104;-70
2021/07/04 10:54:40;;;;;;;3.10;2.78;;;;;;;28.79;23.17;94920.91;5059977;28;20584;-70
2021/07/04 10:57:06;;;;;;;3.42;3.00;;;;;;;28.33;23.32;94925.53;5061066;28;20076;-72
2021/07/04 10:59:32;;;;;;;3.05;2.75;;;;;;;28.37;23.82;94915.59;5059148;28;20112;-71
2021/07/04 11:01:59;;;;;;;3.30;3.00;;;;;;;28.51;23.63;94905.38;5060457;28;20123;-73
2021/07/04 11:04:27;;;;;;;3.83;2.85;;;;;;;28.09;24.60;94918.41;5051205;28;20200;-73
2021/07/04 11:06:59;;;;;;;4.95;3.10;;;;;;;27.38;24.19;94918.53;5056427;28;20108;-72
2021/07/04 11:09:45;;;;;;;3.47;3.17;;;;;;;27.22;25.06;94915.28;5054044;28;20090;-71
2021/07/04 11:12:30;;;;;;;3.88;3.00;;;;;;;27.09;25.16;94919.59;5059895;28;20101;-72
2021/07/04 11:15:23;;;;;;;4.37;3.20;;;;;;;26.30;26.66;94921.22;5057698;28;20103;-71
2021/07/04 11:17:58;;;;;;;3.63;3.05;;;;;;;26.54;26.42;94933.94;5038903;28;20073;-72
2021/07/04 11:20:39;;;;;;;4.25;3.35;;;;;;;25.68;28.32;94931.03;5056540;28;20100;-71
2021/07/04 11:23:04;;;;;;;4.03;3.20;;;;;;;25.91;28.03;94937.56;5059614;28;20116;-72
2021/07/04 11:25:41;;;;;;;4.33;3.07;;;;;;;25.59;28.01;94939.06;5061630;28;20503;-72
2021/07/04 11:28:15;;;;;;;4.55;3.10;;;;;;;25.31;28.51;94938.81;5061387;28;20208;-71
2021/07/04 11:30:41;;;;;;;4.93;3.45;;;;;;;22.92;32.53;94952.75;5061380;28;20556;-71
2021/07/04 11:33:29;;;;;;;3.85;2.70;;;;;;;21.89;34.88;94986.78;5057238;28;20097;-72